Time;durP1;ratioP1;P1;durP2;ratioP2;P2;SDS_P1;SDS_P2;PMS_P1;PMS_P2;Temp;Humidity;BMP_temperature;BMP_pressure;BME280_temperature;BME280_humidity;BME280_pressure;Samples;Min_cycle;Max_cycle;Signal;HPM_P1;HPM_P2
2023/06/16 00:01:40;;;;;;;5.40;4.80;;;25.50;47.90;;;;;;6183933;23;20175;-69
2023/06/16 00:04:06;;;;;;;5.47;4.60;;;25.50;47.90;;;;;;6183918;23;20864;-69
2023/06/16 00:06:31;;;;;;;5.60;5.00;;;25.50;47.70;;;;;;6183942;23;20494;-69
2023/06/16 00:08:58;;;;;;;5.37;4.80;;;25.50;47.80;;;;;;6183949;23;20602;-69
2023/06/16 00:11:27;;;;;;;7.00;4.90;;;25.50;47.70;;;;;;6184190;23;20495;-69
2023/06/16 00:13:54;;;;;;;6.47;5.17;;;25.50;47.60;;;;;;6183412;23;20498;-68
2023/06/16 00:16:20;;;;;;;5.40;4.87;;;25.50;47.70;;;;;;6183730;23;20394;-69
2023/06/16 00:18:51;;;;;;;8.20;4.83;;;25.50;47.60;;;;;;6183851;23;20398;-68
2023/06/16 00:21:35;;;;;;;7.40;5.17;;;25.50;47.70;;;;;;6183863;23;20432;-69
2023/06/16 00:24:01;;;;;;;6.80;4.63;;;25.50;47.70;;;;;;6185005;23;20359;-68
2023/06/16 00:26:27;;;;;;;5.57;5.07;;;25.50;47.60;;;;;;6185688;23;20458;-68
2023/06/16 00:28:53;;;;;;;5.73;4.73;;;25.50;48.20;;;;;;6185530;23;20379;-69
2023/06/16 00:31:18;;;;;;;5.47;4.97;;;25.50;47.60;;;;;;6185708;23;20159;-68
2023/06/16 00:33:44;;;;;;;5.00;4.60;;;25.50;47.60;;;;;;6159165;23;20183;-69
2023/06/16 00:36:10;;;;;;;5.10;4.60;;;25.50;47.50;;;;;;6185576;23;20218;-69
2023/06/16 00:38:35;;;;;;;4.43;4.03;;;25.50;47.50;;;;;;6185551;23;20152;-69
2023/06/16 00:41:01;;;;;;;5.50;5.00;;;25.50;47.50;;;;;;6185859;23;20166;-69
2023/06/16 00:43:27;;;;;;;5.13;4.63;;;25.50;47.40;;;;;;6185447;23;20710;-68
2023/06/16 00:45:52;;;;;;;6.53;5.67;;;25.50;47.40;;;;;;6184942;23;20290;-68
2023/06/16 00:48:20;;;;;;;5.13;4.70;;;25.40;47.20;;;;;;6159081;23;20235;-68
2023/06/16 00:50:46;;;;;;;5.97;4.60;;;25.40;47.20;;;;;;6159574;23;20163;-69
2023/06/16 00:53:12;;;;;;;5.53;5.03;;;25.40;47.20;;;;;;6185262;23;20426;-69
2023/06/16 00:55:38;;;;;;;5.87;5.20;;;25.40;47.10;;;;;;6185361;23;20422;-69
2023/06/16 00:58:04;;;;;;;5.20;4.80;;;25.40;47.20;;;;;;6185311;23;20148;-69
2023/06/16 01:00:36;;;;;;;5.83;5.33;;;25.40;47.10;;;;;;6185389;23;20147;-69
2023/06/16 01:03:05;;;;;;;5.30;4.80;;;25.40;47.20;;;;;;6185502;23;20351;-69
2023/06/16 01:05:32;;;;;;;5.77;5.00;;;25.40;47.20;;;;;;6185263;23;20481;-69
2023/06/16 01:08:14;;;;;;;4.83;4.33;;;25.40;47.20;;;;;;6185355;23;20372;-69
2023/06/16 01:11:00;;;;;;;5.47;5.00;;;25.40;47.20;;;;;;6185412;23;20436;-68
2023/06/16 01:13:35;;;;;;;6.20;5.60;;;25.40;47.20;;;;;;6185488;23;20415;-69
2023/06/16 01:16:02;;;;;;;4.97;4.57;;;25.30;47.00;;;;;;6185285;23;20885;-69
2023/06/16 01:18:30;;;;;;;6.50;4.93;;;25.30;47.00;;;;;;6185292;23;20458;-68
2023/06/16 01:21:26;;;;;;;6.00;5.40;;;25.30;47.00;;;;;;6185180;23;20382;-69
2023/06/16 01:24:23;;;;;;;5.37;4.87;;;25.30;46.90;;;;;;6185142;23;20442;-68
2023/06/16 01:26:54;;;;;;;5.00;4.60;;;25.30;46.90;;;;;;6185105;23;20386;-69
2023/06/16 01:29:23;;;;;;;6.30;5.30;;;25.20;46.80;;;;;;6185013;23;20351;-68
2023/06/16 01:31:52;;;;;;;4.70;4.30;;;25.30;46.80;;;;;;6184951;23;20375;-69
2023/06/16 01:34:19;;;;;;;5.20;4.40;;;25.20;46.80;;;;;;6184902;23;20454;-69
2023/06/16 01:36:47;;;;;;;5.83;5.33;;;25.20;46.70;;;;;;6185072;23;20858;-69
2023/06/16 01:39:16;;;;;;;5.07;4.60;;;25.20;46.80;;;;;;6185034;23;20517;-69
2023/06/16 01:41:41;;;;;;;5.30;4.80;;;25.20;46.80;;;;;;6184855;23;20509;-69
2023/06/16 01:44:08;;;;;;;5.07;4.57;;;25.20;46.80;;;;;;6184900;23;20422;-69
2023/06/16 01:46:35;;;;;;;5.53;5.03;;;25.20;46.80;;;;;;6158184;23;20156;-69
2023/06/16 01:49:01;;;;;;;4.93;4.43;;;25.20;46.80;;;;;;6184841;23;20375;-68
2023/06/16 01:51:27;;;;;;;5.40;4.90;;;25.20;46.80;;;;;;6184980;23;20944;-69
2023/06/16 01:53:53;;;;;;;5.70;5.20;;;25.20;46.70;;;;;;6184794;23;20415;-68
2023/06/16 01:56:19;;;;;;;6.07;5.57;;;25.20;46.70;;;;;;6184024;23;21038;-69
2023/06/16 01:58:45;;;;;;;4.90;4.50;;;25.20;46.70;;;;;;6184846;23;20151;-69
2023/06/16 02:01:17;;;;;;;6.00;5.50;;;25.20;46.70;;;;;;6184820;23;20371;-68
2023/06/16 02:03:54;;;;;;;6.20;5.60;;;25.10;46.60;;;;;;6183250;23;20136;-69
2023/06/16 02:06:37;;;;;;;5.20;4.80;;;25.20;46.60;;;;;;6184770;23;20398;-68
2023/06/16 02:09:04;;;;;;;5.43;5.00;;;25.20;46.70;;;;;;6184656;23;20360;-69
2023/06/16 02:11:31;;;;;;;5.73;5.23;;;25.10;46.60;;;;;;6185070;23;20375;-69
2023/06/16 02:13:56;;;;;;;6.17;5.57;;;25.10;46.60;;;;;;6184566;23;20749;-68
2023/06/16 02:16:24;;;;;;;9.70;5.70;;;25.10;46.50;;;;;;6158141;23;20482;-69
2023/06/16 02:18:53;;;;;;;6.17;5.57;;;25.10;46.50;;;;;;6184608;23;20535;-68
2023/06/16 02:21:19;;;;;;;5.40;4.90;;;25.10;46.60;;;;;;6184691;23;20868;-69
2023/06/16 02:23:45;;;;;;;6.00;5.40;;;25.10;46.60;;;;;;6184824;23;20426;-69
2023/06/16 02:26:11;;;;;;;6.53;5.93;;;25.10;46.50;;;;;;6184445;23;20395;-69
2023/06/16 02:28:36;;;;;;;5.17;4.77;;;25.10;46.50;;;;;;6184475;23;20516;-68
2023/06/16 02:31:02;;;;;;;5.90;5.40;;;25.10;46.50;;;;;;6158110;23;20156;-69
2023/06/16 02:33:28;;;;;;;6.00;5.50;;;25.10;46.50;;;;;;6184412;23;20635;-69
2023/06/16 02:35:53;;;;;;;5.50;5.00;;;25.10;46.70;;;;;;6157930;23;20228;-69
2023/06/16 02:38:19;;;;;;;6.23;5.63;;;25.10;46.60;;;;;;6184659;23;20158;-69
2023/06/16 02:40:45;;;;;;;6.60;5.60;;;25.10;46.50;;;;;;6184362;23;20490;-69
2023/06/16 02:43:10;;;;;;;7.37;5.70;;;25.10;46.40;;;;;;6184421;23;20615;-68
2023/06/16 02:45:37;;;;;;;6.00;5.40;;;25.10;46.40;;;;;;6183992;23;20179;-69
2023/06/16 02:48:03;;;;;;;5.87;5.33;;;25.10;46.40;;;;;;6184333;23;20148;-69
2023/06/16 02:50:29;;;;;;;5.50;5.00;;;25.10;46.40;;;;;;6184397;23;20429;-69
2023/06/16 02:52:55;;;;;;;6.00;5.40;;;25.10;46.40;;;;;;6184147;23;20178;-69
2023/06/16 02:55:21;;;;;;;6.03;5.33;;;25.10;46.40;;;;;;6184121;23;20627;-68
2023/06/16 02:57:46;;;;;;;6.00;5.50;;;25.10;46.30;;;;;;6184285;23;20430;-69
2023/06/16 03:00:13;;;;;;;5.90;5.40;;;25.10;46.40;;;;;;6184281;23;20708;-69
2023/06/16 03:02:38;;;;;;;6.30;5.70;;;25.10;46.30;;;;;;6184235;23;20152;-69
2023/06/16 03:05:04;;;;;;;6.03;5.40;;;25.10;46.30;;;;;;6157625;23;20461;-69
2023/06/16 03:07:32;;;;;;;4.73;4.33;;;25.10;46.40;;;;;;6184554;23;20150;-68
2023/06/16 03:09:59;;;;;;;6.40;5.90;;;25.10;46.20;;;;;;6184567;23;20156;-69
2023/06/16 03:12:24;;;;;;;5.80;5.30;;;25.00;46.20;;;;;;6184069;23;20497;-69
2023/06/16 03:14:50;;;;;;;6.47;5.87;;;25.00;46.10;;;;;;6183945;23;20469;-68
2023/06/16 03:17:20;;;;;;;5.90;5.40;;;25.00;46.10;;;;;;6184046;23;20226;-68
2023/06/16 03:19:49;;;;;;;6.10;5.53;;;25.00;46.10;;;;;;6183370;23;20382;-66
2023/06/16 03:22:15;;;;;;;5.83;5.33;;;25.00;46.10;;;;;;6182659;23;20388;-68
2023/06/16 03:24:43;;;;;;;5.90;5.30;;;25.00;46.10;;;;;;6183247;23;21196;-69
2023/06/16 03:27:09;;;;;;;6.30;5.70;;;25.00;46.10;;;;;;6183090;23;20176;-69
2023/06/16 03:29:35;;;;;;;6.00;5.40;;;25.00;46.10;;;;;;6184121;23;20383;-69
2023/06/16 03:32:01;;;;;;;5.60;5.20;;;25.00;46.10;;;;;;6184252;23;20386;-68
2023/06/16 03:34:29;;;;;;;5.87;5.37;;;25.00;46.10;;;;;;6183705;23;20391;-69
2023/06/16 03:36:55;;;;;;;6.50;5.93;;;25.00;46.10;;;;;;6157595;23;20706;-69
2023/06/16 03:39:21;;;;;;;6.13;5.63;;;25.00;46.10;;;;;;6183927;23;20393;-69
2023/06/16 03:41:47;;;;;;;6.20;5.70;;;25.00;46.10;;;;;;6184104;23;20913;-69
2023/06/16 03:44:12;;;;;;;7.10;5.50;;;25.00;46.00;;;;;;6183945;23;20230;-69
2023/06/16 03:46:38;;;;;;;5.83;5.33;;;24.90;45.90;;;;;;6184035;23;20155;-69
2023/06/16 03:49:03;;;;;;;7.30;5.60;;;24.90;45.90;;;;;;6183667;23;20151;-69
2023/06/16 03:51:29;;;;;;;6.10;5.60;;;24.90;45.90;;;;;;6184373;23;20496;-68
2023/06/16 03:53:55;;;;;;;8.33;5.23;;;24.90;45.90;;;;;;6183791;23;20266;-68
2023/06/16 03:56:21;;;;;;;6.60;6.00;;;24.90;45.80;;;;;;6157467;23;20901;-70
2023/06/16 03:58:48;;;;;;;5.50;5.00;;;24.90;45.80;;;;;;6159565;23;20162;-69
2023/06/16 04:01:15;;;;;;;5.97;5.47;;;24.90;45.80;;;;;;6185975;23;20378;-69
2023/06/16 04:03:40;;;;;;;5.93;5.43;;;24.90;45.80;;;;;;6185646;23;20402;-68
2023/06/16 04:06:06;;;;;;;6.53;5.93;;;24.90;45.70;;;;;;6185909;23;20395;-69
2023/06/16 04:08:32;;;;;;;5.60;5.10;;;24.90;45.80;;;;;;6185919;23;20596;-69
2023/06/16 04:10:58;;;;;;;5.87;5.33;;;24.90;45.70;;;;;;6185878;23;20148;-69
2023/06/16 04:13:26;;;;;;;5.97;5.47;;;24.90;45.80;;;;;;6185738;23;20183;-69
2023/06/16 04:15:52;;;;;;;6.40;5.80;;;24.80;45.80;;;;;;6185569;23;20391;-69
2023/06/16 04:18:18;;;;;;;6.00;5.50;;;24.80;45.80;;;;;;6185791;23;20391;-69
2023/06/16 04:20:43;;;;;;;6.43;5.83;;;24.80;45.80;;;;;;6185815;23;20235;-69
2023/06/16 04:23:09;;;;;;;8.13;5.70;;;24.80;45.80;;;;;;6185760;23;20227;-69
2023/06/16 04:25:37;;;;;;;6.20;5.70;;;24.80;45.80;;;;;;6185609;23;20182;-69
2023/06/16 04:28:03;;;;;;;5.80;5.30;;;24.80;45.80;;;;;;6185673;23;20171;-69
2023/06/16 04:30:30;;;;;;;5.60;4.70;;;24.80;45.90;;;;;;6185349;23;20432;-69
2023/06/16 04:32:59;;;;;;;6.13;5.63;;;24.80;45.90;;;;;;6185604;23;20418;-69
2023/06/16 04:35:31;;;;;;;5.53;5.03;;;24.80;46.00;;;;;;6185543;23;20387;-69
2023/06/16 04:37:57;;;;;;;5.67;5.17;;;24.80;46.00;;;;;;6185635;23;20352;-69
2023/06/16 04:40:24;;;;;;;7.37;6.60;;;24.90;46.10;;;;;;6185626;23;20441;-69
2023/06/16 04:42:50;;;;;;;5.67;5.27;;;24.80;46.10;;;;;;6185496;23;20375;-69
2023/06/16 04:45:16;;;;;;;5.80;5.07;;;24.80;46.00;;;;;;6185405;23;20442;-69
2023/06/16 04:47:42;;;;;;;7.27;5.40;;;24.90;46.10;;;;;;6185539;23;20572;-69
2023/06/16 04:50:09;;;;;;;5.53;4.90;;;24.90;46.10;;;;;;6184436;23;20156;-69
2023/06/16 04:52:38;;;;;;;6.00;5.47;;;24.90;46.10;;;;;;6185173;23;20414;-69
2023/06/16 04:55:05;;;;;;;5.57;4.73;;;24.90;46.10;;;;;;6185295;23;20409;-69
2023/06/16 04:57:31;;;;;;;5.43;4.93;;;24.90;46.20;;;;;;6158891;23;20403;-68
2023/06/16 04:59:58;;;;;;;5.40;4.90;;;24.90;46.20;;;;;;6185733;23;20684;-68
2023/06/16 05:02:23;;;;;;;5.23;4.73;;;24.90;46.20;;;;;;6185741;23;20378;-69
2023/06/16 05:04:50;;;;;;;5.60;5.10;;;24.90;46.20;;;;;;6185252;23;20721;-68
2023/06/16 05:07:15;;;;;;;5.50;4.90;;;24.90;46.20;;;;;;6185075;23;20155;-70
2023/06/16 05:09:41;;;;;;;5.83;5.00;;;24.90;46.20;;;;;;6184602;23;20375;-69
2023/06/16 05:12:07;;;;;;;5.77;5.20;;;24.90;46.10;;;;;;6158465;23;20155;-69
2023/06/16 05:14:33;;;;;;;6.47;5.13;;;24.90;46.20;;;;;;6184938;23;20619;-68
2023/06/16 05:16:59;;;;;;;6.37;4.57;;;24.90;46.20;;;;;;6185445;23;20406;-69
2023/06/16 05:19:25;;;;;;;4.50;4.10;;;24.90;46.10;;;;;;6185166;23;20430;-69
2023/06/16 05:21:51;;;;;;;5.33;4.20;;;24.90;46.10;;;;;;6185119;23;20425;-68
2023/06/16 05:24:16;;;;;;;6.03;5.23;;;24.90;46.10;;;;;;6185119;23;20843;-68
2023/06/16 05:26:42;;;;;;;5.40;4.90;;;24.90;46.10;;;;;;6185125;23;20482;-69
2023/06/16 05:29:08;;;;;;;6.23;4.67;;;24.90;46.00;;;;;;6185148;23;20162;-69
2023/06/16 05:31:35;;;;;;;5.50;4.80;;;24.90;46.00;;;;;;6184210;23;20155;-69
2023/06/16 05:34:01;;;;;;;7.83;4.93;;;24.90;46.00;;;;;;6185243;23;20186;-68
2023/06/16 05:36:29;;;;;;;5.77;5.27;;;24.90;46.10;;;;;;6184929;23;20386;-69
2023/06/16 05:38:54;;;;;;;5.40;4.90;;;24.90;46.10;;;;;;6185092;23;20837;-69
2023/06/16 05:41:23;;;;;;;5.67;5.07;;;24.90;46.10;;;;;;6184936;23;20414;-69
2023/06/16 05:43:51;;;;;;;5.60;5.10;;;24.90;46.10;;;;;;6184992;23;20382;-68
2023/06/16 05:46:16;;;;;;;4.43;4.03;;;24.90;46.10;;;;;;6158522;23;21049;-69
2023/06/16 05:48:42;;;;;;;6.83;6.13;;;24.90;46.10;;;;;;6184941;23;20419;-69
2023/06/16 05:51:08;;;;;;;7.13;4.90;;;24.90;46.10;;;;;;6184972;23;20222;-68
2023/06/16 05:53:33;;;;;;;5.20;4.20;;;24.90;46.10;;;;;;6184738;23;20175;-69
2023/06/16 05:55:59;;;;;;;5.13;4.63;;;24.90;46.20;;;;;;6184644;23;20183;-69
2023/06/16 05:58:24;;;;;;;6.20;4.63;;;25.00;46.30;;;;;;6185174;23;20144;-68
2023/06/16 06:00:50;;;;;;;5.23;4.70;;;24.90;46.30;;;;;;6185157;23;20191;-69
2023/06/16 06:03:15;;;;;;;5.60;5.10;;;24.90;46.20;;;;;;6158394;23;20156;-69
2023/06/16 06:05:41;;;;;;;6.17;5.43;;;25.00;46.30;;;;;;6184701;23;20171;-69
2023/06/16 06:08:07;;;;;;;8.13;4.77;;;25.00;46.40;;;;;;6184870;23;20666;-69
2023/06/16 06:10:33;;;;;;;4.97;4.57;;;25.00;46.40;;;;;;6158096;23;20259;-69
2023/06/16 06:13:02;;;;;;;5.40;4.90;;;25.00;46.40;;;;;;6184486;23;20481;-69
2023/06/16 06:15:27;;;;;;;5.43;4.90;;;25.00;46.40;;;;;;6184654;23;20168;-69
2023/06/16 06:17:53;;;;;;;5.33;4.90;;;25.00;46.40;;;;;;6184657;23;20372;-69
2023/06/16 06:20:19;;;;;;;5.67;5.13;;;25.00;46.40;;;;;;6184332;23;20563;-69
2023/06/16 06:22:44;;;;;;;5.03;4.53;;;25.00;46.40;;;;;;6184718;23;20162;-68
2023/06/16 06:25:13;;;;;;;5.67;4.90;;;25.00;46.40;;;;;;6184533;23;20178;-68
2023/06/16 06:27:39;;;;;;;5.60;5.10;;;25.00;46.50;;;;;;6184497;23;20174;-69
2023/06/16 06:30:06;;;;;;;6.73;4.83;;;25.00;46.50;;;;;;6184505;23;20877;-69
2023/06/16 06:32:31;;;;;;;5.00;4.60;;;25.00;46.50;;;;;;6158016;23;20430;-69
2023/06/16 06:34:57;;;;;;;7.90;5.47;;;25.00;46.60;;;;;;6184298;23;20415;-69
2023/06/16 06:37:29;;;;;;;5.30;4.60;;;25.00;46.60;;;;;;6184782;23;20206;-69
2023/06/16 06:39:55;;;;;;;4.40;4.00;;;25.00;46.60;;;;;;6184783;23;20470;-69
2023/06/16 06:42:21;;;;;;;4.83;4.33;;;25.00;46.70;;;;;;6184413;23;20375;-69
2023/06/16 06:44:46;;;;;;;5.50;4.87;;;25.00;46.70;;;;;;6184266;23;20403;-69
2023/06/16 06:47:12;;;;;;;6.50;4.63;;;25.00;46.70;;;;;;6184411;23;20375;-69
2023/06/16 06:49:38;;;;;;;5.37;4.90;;;25.10;46.80;;;;;;6184457;23;20160;-69
2023/06/16 06:52:10;;;;;;;5.43;4.93;;;25.10;46.80;;;;;;5069342;28;21048;-69
2023/06/16 06:54:35;;;;;;;5.67;4.60;;;25.10;46.80;;;;;;5069245;28;20433;-69
2023/06/16 06:57:01;;;;;;;5.50;5.00;;;25.10;46.80;;;;;;5069240;28;20657;-69
2023/06/16 06:59:27;;;;;;;5.53;5.00;;;25.10;46.80;;;;;;5069168;28;20174;-69
2023/06/16 07:01:52;;;;;;;7.80;6.00;;;25.10;46.80;;;;;;5067887;28;20626;-69
2023/06/16 07:04:18;;;;;;;5.43;4.80;;;25.10;46.80;;;;;;5069024;28;20253;-69
2023/06/16 07:06:44;;;;;;;6.70;4.80;;;25.10;46.80;;;;;;5069070;28;20673;-69
2023/06/16 07:09:09;;;;;;;5.30;4.80;;;25.10;46.80;;;;;;5068983;28;20197;-69
2023/06/16 07:11:35;;;;;;;5.17;4.77;;;25.10;46.80;;;;;;5068867;28;20456;-66
2023/06/16 07:14:01;;;;;;;4.80;4.40;;;25.10;46.80;;;;;;5067603;28;20534;-69
2023/06/16 07:16:28;;;;;;;6.30;5.30;;;25.10;46.90;;;;;;5067694;28;20190;-69
2023/06/16 07:18:54;;;;;;;4.97;4.47;;;25.10;46.90;;;;;;5068755;28;20401;-69
2023/06/16 07:21:19;;;;;;;4.60;4.20;;;25.10;46.90;;;;;;5068700;28;20420;-69
2023/06/16 07:23:45;;;;;;;4.83;4.37;;;25.20;46.90;;;;;;5068948;28;20227;-69
2023/06/16 07:26:11;;;;;;;4.60;4.20;;;25.20;46.90;;;;;;5068620;28;20198;-69
2023/06/16 07:28:37;;;;;;;5.60;5.10;;;25.20;47.00;;;;;;5068798;28;20167;-69
2023/06/16 07:31:02;;;;;;;5.20;4.60;;;25.20;47.00;;;;;;5068435;28;20209;-69
2023/06/16 07:33:28;;;;;;;4.40;4.00;;;25.20;47.00;;;;;;5068771;28;20420;-69
2023/06/16 07:35:54;;;;;;;5.30;4.50;;;25.20;47.00;;;;;;5068564;28;20682;-67
2023/06/16 07:38:20;;;;;;;5.37;4.57;;;25.20;47.00;;;;;;5068603;28;20170;-69
2023/06/16 07:40:45;;;;;;;5.60;5.20;;;25.20;47.00;;;;;;5068385;28;20171;-67
2023/06/16 07:43:11;;;;;;;4.57;4.17;;;25.20;47.10;;;;;;5067156;28;20523;-66
2023/06/16 07:45:37;;;;;;;5.00;4.50;;;25.20;47.00;;;;;;5068159;28;20758;-66
2023/06/16 07:48:03;;;;;;;6.40;4.57;;;25.20;47.00;;;;;;5068214;28;20171;-69
2023/06/16 07:50:29;;;;;;;4.97;4.57;;;25.20;47.00;;;;;;5068117;28;20214;-67
2023/06/16 07:52:55;;;;;;;5.00;4.60;;;25.20;47.00;;;;;;5068067;28;20408;-67
2023/06/16 07:55:21;;;;;;;5.70;5.10;;;25.20;47.10;;;;;;5067856;28;20425;-69
2023/06/16 07:57:47;;;;;;;8.10;4.90;;;25.20;47.10;;;;;;5068309;28;20170;-67
2023/06/16 08:00:14;;;;;;;4.97;4.53;;;25.20;47.10;;;;;;5067954;28;20408;-69
2023/06/16 08:02:40;;;;;;;5.80;4.27;;;25.20;47.10;;;;;;5059522;28;20164;-69
2023/06/16 08:05:07;;;;;;;5.60;5.10;;;25.20;47.10;;;;;;5054798;28;20440;-67
2023/06/16 08:07:34;;;;;;;5.30;4.80;;;25.20;47.10;;;;;;5054514;28;20416;-68
2023/06/16 08:10:00;;;;;;;5.00;4.50;;;25.20;47.10;;;;;;5054610;28;20449;-69
2023/06/16 08:12:26;;;;;;;5.00;4.50;;;25.20;47.10;;;;;;5054472;28;20417;-69
2023/06/16 08:14:52;;;;;;;5.30;4.80;;;25.20;47.10;;;;;;5054386;28;20421;-69
2023/06/16 08:17:18;;;;;;;4.93;4.40;;;25.20;47.10;;;;;;5054365;28;20171;-67
2023/06/16 08:19:43;;;;;;;5.13;4.70;;;25.20;47.20;;;;;;5054355;28;20171;-69
2023/06/16 08:22:09;;;;;;;5.33;4.07;;;25.20;47.10;;;;;;5054556;28;20167;-69
2023/06/16 08:24:35;;;;;;;4.70;4.30;;;25.20;47.10;;;;;;5054243;28;20191;-66
2023/06/16 08:27:01;;;;;;;4.80;4.40;;;25.20;47.10;;;;;;5054492;28;20246;-67
2023/06/16 08:29:30;;;;;;;7.83;4.80;;;25.20;47.10;;;;;;5054192;28;20173;-69
2023/06/16 08:31:58;;;;;;;4.60;3.80;;;25.20;47.20;;;;;;5054047;28;20452;-67
2023/06/16 08:34:24;;;;;;;5.73;5.23;;;25.20;47.20;;;;;;5054021;28;20443;-69
2023/06/16 08:36:50;;;;;;;6.83;3.80;;;25.20;47.20;;;;;;5054019;28;20413;-67
2023/06/16 08:39:15;;;;;;;5.03;4.30;;;25.20;47.20;;;;;;5054010;28;20727;-69
2023/06/16 08:41:41;;;;;;;4.70;4.03;;;25.20;47.20;;;;;;5053964;28;20210;-69
2023/06/16 08:44:09;;;;;;;5.33;4.37;;;25.20;47.20;;;;;;5053872;28;20418;-69
2023/06/16 08:46:36;;;;;;;4.73;4.33;;;25.20;47.20;;;;;;5053842;28;20258;-69
2023/06/16 08:49:04;;;;;;;5.47;3.93;;;25.20;47.20;;;;;;5053814;28;20484;-69
2023/06/16 08:51:34;;;;;;;4.80;4.30;;;25.30;47.30;;;;;;5053626;28;20461;-69
2023/06/16 08:54:03;;;;;;;4.23;3.87;;;25.30;47.30;;;;;;5053786;28;20395;-68
2023/06/16 08:56:34;;;;;;;4.40;4.00;;;25.20;47.30;;;;;;5053502;28;20433;-69
2023/06/16 08:59:03;;;;;;;6.50;4.40;;;25.20;47.30;;;;;;5053693;28;20397;-69
2023/06/16 09:01:30;;;;;;;4.27;3.87;;;25.30;47.40;;;;;;5053610;28;20504;-68
2023/06/16 09:03:55;;;;;;;4.40;4.00;;;25.30;47.40;;;;;;5053614;28;20414;-69
2023/06/16 09:06:25;;;;;;;4.97;4.47;;;25.20;47.40;;;;;;5053721;28;20447;-69
2023/06/16 09:08:52;;;;;;;5.10;4.60;;;25.30;47.50;;;;;;5053412;28;20646;-69
2023/06/16 09:11:23;;;;;;;4.63;4.23;;;25.20;47.40;;;;;;5053290;28;20453;-69
2023/06/16 09:13:51;;;;;;;4.80;4.27;;;25.30;47.50;;;;;;5052342;28;20398;-69
2023/06/16 09:16:18;;;;;;;4.60;4.20;;;25.30;47.50;;;;;;5053185;28;20438;-69
2023/06/16 09:18:44;;;;;;;5.07;4.57;;;25.30;47.50;;;;;;5053291;28;20420;-69
2023/06/16 09:21:11;;;;;;;4.67;4.27;;;25.30;47.60;;;;;;5053217;28;20405;-69
2023/06/16 09:23:38;;;;;;;4.30;3.90;;;25.30;47.60;;;;;;5053265;28;20405;-68
2023/06/16 09:26:13;;;;;;;4.60;4.20;;;25.30;47.60;;;;;;5053097;28;20425;-69
2023/06/16 09:28:39;;;;;;;5.50;4.13;;;25.30;47.60;;;;;;5053016;28;20412;-69
2023/06/16 09:31:07;;;;;;;5.20;4.33;;;25.30;47.60;;;;;;5052918;28;20453;-69
2023/06/16 09:33:34;;;;;;;4.90;4.40;;;25.30;47.60;;;;;;5053183;28;20786;-69
2023/06/16 09:36:00;;;;;;;4.63;4.00;;;25.30;47.70;;;;;;5052822;28;20441;-69
2023/06/16 09:38:27;;;;;;;5.33;4.83;;;25.30;47.70;;;;;;5052895;28;20401;-68
2023/06/16 09:41:06;;;;;;;4.10;3.70;;;25.20;47.60;;;;;;5052821;28;20417;-69
2023/06/16 09:43:31;;;;;;;4.47;4.07;;;25.30;47.80;;;;;;5052801;28;20960;-69
2023/06/16 09:45:57;;;;;;;5.10;4.60;;;25.30;47.80;;;;;;5052608;28;20429;-69
2023/06/16 09:48:26;;;;;;;4.87;4.30;;;25.30;47.80;;;;;;5052722;28;20207;-69
2023/06/16 09:50:55;;;;;;;3.80;3.50;;;25.30;47.80;;;;;;5050691;28;20206;-67
2023/06/16 09:53:22;;;;;;;3.90;3.60;;;25.30;47.80;;;;;;5051711;28;20409;-67
2023/06/16 09:55:50;;;;;;;4.00;3.70;;;25.30;47.80;;;;;;5052493;28;20440;-67
2023/06/16 09:58:15;;;;;;;4.33;3.93;;;25.30;47.80;;;;;;5052442;28;20401;-67
2023/06/16 10:00:41;;;;;;;3.87;3.57;;;25.30;47.80;;;;;;5052465;28;20412;-67
2023/06/16 10:03:10;;;;;;;4.77;4.37;;;25.30;47.80;;;;;;5052601;28;20536;-67
2023/06/16 10:05:37;;;;;;;4.57;4.17;;;25.30;47.80;;;;;;5052323;28;20191;-67
2023/06/16 10:08:05;;;;;;;5.17;4.10;;;25.30;47.80;;;;;;5052595;28;20479;-67
2023/06/16 10:10:33;;;;;;;4.70;3.80;;;25.30;47.80;;;;;;5052176;28;20457;-67
2023/06/16 10:13:03;;;;;;;4.13;3.77;;;25.30;47.80;;;;;;5052254;28;20497;-67
2023/06/16 10:15:34;;;;;;;4.00;3.57;;;25.30;47.80;;;;;;5052427;28;20491;-67
2023/06/16 10:18:05;;;;;;;4.10;3.80;;;25.30;47.80;;;;;;5052232;28;20536;-69
2023/06/16 10:20:34;;;;;;;3.87;3.50;;;25.30;47.80;;;;;;5052178;28;20436;-69
2023/06/16 10:23:00;;;;;;;4.40;4.03;;;25.30;47.80;;;;;;5052436;28;20508;-69
2023/06/16 10:25:28;;;;;;;4.03;3.73;;;25.30;47.90;;;;;;5051776;28;20480;-69
2023/06/16 10:27:55;;;;;;;4.43;3.90;;;25.30;47.90;;;;;;5052061;28;20424;-67
2023/06/16 10:30:23;;;;;;;4.27;3.63;;;25.30;47.90;;;;;;5052224;28;20457;-67
2023/06/16 10:32:50;;;;;;;4.33;3.97;;;25.30;47.90;;;;;;5051958;28;21013;-67
2023/06/16 10:35:18;;;;;;;5.23;3.80;;;25.30;47.90;;;;;;5052190;28;21060;-67
2023/06/16 10:37:51;;;;;;;6.17;3.80;;;25.30;47.90;;;;;;5050590;28;20463;-67
2023/06/16 10:40:19;;;;;;;4.27;3.63;;;25.30;48.00;;;;;;5051798;28;20543;-69
2023/06/16 10:42:46;;;;;;;4.70;4.10;;;25.30;47.90;;;;;;5048949;28;20461;-69
2023/06/16 10:45:36;;;;;;;4.07;3.67;;;25.30;47.90;;;;;;5043791;28;20453;-68
2023/06/16 10:48:11;;;;;;;4.40;4.00;;;25.30;47.90;;;;;;5051844;28;20925;-67
2023/06/16 10:50:41;;;;;;;4.20;3.80;;;25.30;47.90;;;;;;5051823;28;20873;-67
2023/06/16 10:53:24;;;;;;;9.80;4.00;;;25.30;48.50;;;;;;5040456;28;20437;-67
2023/06/16 10:56:05;;;;;;;5.80;3.67;;;25.30;47.90;;;;;;5031862;28;20501;-67
2023/06/16 10:58:32;;;;;;;4.03;3.70;;;25.30;48.00;;;;;;5030550;28;20415;-67
2023/06/16 11:01:01;;;;;;;4.20;3.80;;;25.30;48.00;;;;;;5031870;28;20411;-67
2023/06/16 11:03:35;;;;;;;6.20;4.90;;;25.30;48.00;;;;;;5045157;28;21021;-67
2023/06/16 11:06:02;;;;;;;5.80;5.20;;;25.30;47.90;;;;;;5051659;28;20832;-67
2023/06/16 11:08:28;;;;;;;9.30;6.13;;;25.30;48.00;;;;;;5051616;28;20421;-67
2023/06/16 11:11:03;;;;;;;9.47;7.77;;;25.30;48.00;;;;;;5051794;28;20819;-67
2023/06/16 11:13:38;;;;;;;8.10;6.30;;;25.30;48.00;;;;;;5048098;28;20475;-67
2023/06/16 11:16:04;;;;;;;14.53;11.40;;;25.30;48.00;;;;;;5032331;28;20523;-67
2023/06/16 11:18:35;;;;;;;22.63;15.33;;;25.30;48.00;;;;;;5030165;28;20418;-67
2023/06/16 11:21:06;;;;;;;13.00;9.87;;;25.30;48.10;;;;;;5032215;28;20406;-67
2023/06/16 11:23:32;;;;;;;22.77;15.93;;;25.30;48.00;;;;;;5032753;28;20670;-67
2023/06/16 11:26:10;;;;;;;16.00;12.20;;;25.30;48.00;;;;;;5031415;28;20938;-67
2023/06/16 11:28:40;;;;;;;13.10;9.97;;;25.30;48.10;;;;;;5030240;28;20944;-67
2023/06/16 11:31:07;;;;;;;12.80;9.60;;;25.30;48.10;;;;;;5031463;28;20454;-67
2023/06/16 11:33:33;;;;;;;15.70;11.67;;;25.30;48.10;;;;;;5039427;28;20517;-68
2023/06/16 11:36:20;;;;;;;16.70;12.23;;;25.30;48.10;;;;;;5031726;28;20434;-67
2023/06/16 11:38:49;;;;;;;16.97;12.43;;;25.30;48.10;;;;;;5034797;28;20452;-67
2023/06/16 11:41:21;;;;;;;16.43;12.90;;;25.30;48.10;;;;;;5035180;28;20402;-66
2023/06/16 11:43:48;;;;;;;18.77;13.70;;;25.30;48.10;;;;;;5052753;28;20429;-67
2023/06/16 11:46:16;;;;;;;19.13;12.93;;;25.30;48.10;;;;;;5054938;28;20520;-67
2023/06/16 11:48:42;;;;;;;22.20;15.60;;;25.30;48.10;;;;;;5054933;28;20409;-67
2023/06/16 11:51:07;;;;;;;20.03;13.43;;;25.30;48.10;;;;;;5054738;28;21244;-67
2023/06/16 11:53:33;;;;;;;20.07;13.77;;;25.30;48.10;;;;;;5036815;28;20178;-67
2023/06/16 11:55:59;;;;;;;16.37;13.23;;;25.30;48.20;;;;;;5034851;28;20200;-67
2023/06/16 11:58:28;;;;;;;15.57;12.57;;;25.30;48.20;;;;;;5034790;28;20485;-67
2023/06/16 12:01:00;;;;;;;22.53;14.13;;;25.30;48.20;;;;;;5034799;28;20175;-67
2023/06/16 12:03:31;;;;;;;19.70;14.27;;;25.30;48.20;;;;;;5037204;28;20421;-67
2023/06/16 12:05:58;;;;;;;21.53;16.00;;;25.30;48.20;;;;;;5054510;28;20452;-67
2023/06/16 12:08:54;;;;;;;21.23;14.67;;;25.30;48.20;;;;;;5054555;28;20902;-67
2023/06/16 12:11:29;;;;;;;22.03;15.97;;;25.30;48.10;;;;;;5049815;28;20457;-67
2023/06/16 12:13:56;;;;;;;21.70;15.50;;;25.30;48.20;;;;;;5034596;28;20418;-67
2023/06/16 12:16:22;;;;;;;23.00;16.93;;;25.30;48.20;;;;;;5034508;28;20418;-67
2023/06/16 12:18:52;;;;;;;22.80;15.00;;;25.30;48.20;;;;;;5034752;28;20412;-67
2023/06/16 12:21:24;;;;;;;18.50;14.47;;;25.30;48.70;;;;;;5034495;28;20251;-67
2023/06/16 12:23:52;;;;;;;20.63;15.30;;;25.30;48.30;;;;;;5046757;28;20938;-67
2023/06/16 12:26:47;;;;;;;23.80;14.90;;;25.30;48.30;;;;;;5034328;28;20442;-67
2023/06/16 12:29:15;;;;;;;20.10;14.00;;;25.30;48.20;;;;;;5029624;28;20942;-67
2023/06/16 12:31:57;;;;;;;17.90;14.83;;;25.30;48.30;;;;;;5035267;28;20446;-68
2023/06/16 12:34:30;;;;;;;20.30;14.80;;;25.30;48.30;;;;;;5054060;28;20421;-67
2023/06/16 12:37:07;;;;;;;20.10;15.60;;;25.30;48.30;;;;;;5054118;28;20417;-67
2023/06/16 12:39:40;;;;;;;16.90;14.03;;;25.30;48.30;;;;;;5054348;28;20458;-67
2023/06/16 12:42:07;;;;;;;20.13;13.83;;;25.30;48.30;;;;;;5046673;28;20446;-67
2023/06/16 12:44:47;;;;;;;20.83;15.17;;;25.30;48.30;;;;;;5032673;28;20852;-67
2023/06/16 12:47:14;;;;;;;17.13;14.13;;;25.30;48.30;;;;;;5034013;28;20395;-67
2023/06/16 12:49:40;;;;;;;17.03;13.60;;;25.30;48.30;;;;;;5033806;28;20406;-67